createdAt,value
2023-01-02T00:04:06.892Z,15.84
2023-01-02T00:09:19.114Z,15.81
2023-01-02T00:14:29.528Z,15.77
2023-01-02T00:19:36.339Z,15.74
2023-01-02T00:24:42.878Z,15.74
2023-01-02T00:30:05.842Z,15.73
2023-01-02T00:35:12.552Z,15.74
2023-01-02T00:40:22.508Z,15.75
2023-01-02T00:45:26.358Z,15.73
2023-01-02T00:50:35.407Z,15.76
2023-01-02T00:55:43.024Z,15.78
2023-01-02T01:00:50.894Z,15.81
2023-01-02T01:05:59.936Z,15.87
2023-01-02T01:11:10.609Z,15.94
2023-01-02T01:16:16.798Z,15.99
2023-01-02T01:21:23.841Z,16.02
2023-01-02T01:26:32.707Z,16.06
2023-01-02T01:31:36.701Z,16.11
2023-01-02T01:36:44.395Z,16.17
2023-01-02T01:41:54.973Z,16.19
2023-01-02T01:47:04.528Z,16.21
2023-01-02T01:52:12.247Z,16.22
2023-01-02T01:57:25.435Z,16.23
2023-01-02T02:02:38.197Z,16.23
2023-01-02T02:07:53.549Z,16.22
2023-01-02T02:13:00.202Z,16.23
2023-01-02T02:18:23.014Z,16.22
2023-01-02T02:24:23.029Z,16.20
2023-01-02T02:30:15.771Z,16.16
2023-01-02T02:35:34.362Z,16.12
2023-01-02T02:40:52.323Z,16.14
2023-01-02T02:46:11.570Z,16.12
2023-01-02T02:51:26.824Z,16.11
2023-01-02T02:56:35.687Z,16.09
2023-01-02T03:01:44.377Z,16.08
2023-01-02T03:07:07.567Z,16.06
2023-01-02T03:12:23.710Z,16.08
2023-01-02T03:17:43.572Z,16.08
2023-01-02T03:22:52.250Z,16.05
2023-01-02T03:28:04.627Z,16.05
2023-01-02T03:33:20.934Z,16.05
2023-01-02T03:43:56.972Z,16.04
2023-01-02T03:49:18.027Z,16.05
2023-01-02T03:54:25.596Z,16.02
2023-01-02T03:59:39.341Z,16.01
2023-01-02T04:04:57.045Z,16.00
2023-01-02T04:10:08.087Z,15.97
2023-01-02T04:15:17.449Z,15.96
2023-01-02T04:20:28.748Z,15.94
2023-01-02T04:25:41.040Z,15.93
2023-01-02T04:30:55.669Z,15.93
2023-01-02T04:36:17.518Z,15.94
2023-01-02T04:46:49.305Z,15.89
2023-01-02T04:52:04.133Z,15.85
2023-01-02T04:57:22.542Z,15.82
2023-01-02T05:02:27.584Z,15.82
2023-01-02T05:07:39.400Z,15.82
2023-01-02T05:12:44.861Z,15.80
2023-01-02T05:17:50.434Z,15.78
2023-01-02T05:23:32.575Z,15.78
2023-01-02T05:28:39.037Z,15.75
2023-01-02T05:33:44.390Z,15.73
2023-01-02T05:38:50.172Z,15.71
2023-01-02T05:43:58.654Z,15.70
2023-01-02T05:49:06.465Z,15.74
2023-01-02T05:54:12.631Z,15.80
2023-01-02T05:59:19.108Z,15.86
2023-01-02T06:04:24.074Z,15.89
2023-01-02T06:09:32.940Z,15.94
2023-01-02T06:14:40.476Z,15.95
2023-01-02T06:19:54.240Z,15.94
2023-01-02T06:25:06.526Z,15.97
2023-01-02T06:30:15.577Z,15.97
2023-01-02T06:35:23.670Z,15.99
2023-01-02T06:40:35.580Z,16.01
2023-01-02T06:45:40.145Z,15.99
2023-01-02T06:50:46.619Z,15.98
2023-01-02T06:56:15.159Z,15.95
2023-01-02T07:01:21.841Z,15.94
2023-01-02T07:06:29.595Z,15.94
2023-01-02T07:11:41.476Z,15.92
2023-01-02T07:16:46.701Z,15.90
2023-01-02T07:21:52.675Z,15.88
2023-01-02T07:27:06.427Z,15.86
2023-01-02T07:32:10.851Z,15.83
2023-01-02T07:37:20.076Z,15.79
2023-01-02T07:42:26.588Z,15.76
2023-01-02T07:47:32.055Z,15.77
2023-01-02T07:52:36.691Z,15.73
2023-01-02T07:57:41.762Z,15.71
2023-01-02T08:02:47.937Z,15.67
2023-01-02T08:07:53.334Z,15.68
2023-01-02T08:13:00.734Z,15.68
2023-01-02T08:18:05.829Z,15.65
2023-01-02T08:23:12.567Z,15.63
2023-01-02T08:28:20.193Z,15.65
2023-01-02T08:33:28.453Z,15.66
2023-01-02T08:38:40.611Z,15.63
2023-01-02T08:43:46.234Z,15.65
2023-01-02T08:48:53.101Z,15.68
2023-01-02T08:54:00.117Z,15.67
2023-01-02T08:59:13.425Z,15.70
2023-01-02T09:04:19.242Z,15.72
2023-01-02T09:09:23.452Z,15.74
2023-01-02T09:14:28.990Z,15.76
2023-01-02T09:19:33.895Z,15.80
2023-01-02T09:24:38.892Z,15.82
2023-01-02T09:29:49.618Z,15.83
2023-01-02T09:34:54.362Z,15.85
2023-01-02T09:39:58.833Z,15.89
2023-01-02T09:45:09.479Z,15.98
2023-01-02T09:50:19.505Z,16.02
2023-01-02T09:55:35.320Z,16.09
2023-01-02T10:00:41.690Z,16.16
2023-01-02T10:06:14.030Z,16.25
2023-01-02T10:11:36.214Z,16.34
2023-01-02T10:16:52.326Z,16.42
2023-01-02T10:22:02.513Z,16.46
2023-01-02T10:27:13.190Z,16.52
2023-01-02T10:32:23.158Z,16.61
2023-01-02T10:37:29.134Z,16.68
2023-01-02T10:42:34.883Z,16.70
2023-01-02T10:47:46.911Z,16.71
2023-01-02T10:52:57.643Z,16.76
2023-01-02T10:58:12.322Z,17.03
2023-01-02T11:03:32.052Z,17.05
2023-01-02T11:08:48.405Z,17.09
2023-01-02T11:13:56.847Z,17.19
2023-01-02T11:19:10.461Z,17.39
2023-01-02T11:24:30.638Z,17.56
2023-01-02T11:29:53.751Z,17.65
2023-01-02T11:35:06.370Z,17.69
2023-01-02T11:40:31.913Z,17.71
2023-01-02T11:45:38.751Z,17.75
2023-01-02T11:50:57.684Z,17.82
2023-01-02T11:56:17.491Z,17.83
2023-01-02T12:01:53.777Z,17.84
2023-01-02T12:07:24.927Z,17.88
2023-01-02T12:13:09.552Z,17.88
2023-01-02T12:18:28.999Z,17.99
2023-01-02T12:24:09.271Z,18.03
2023-01-02T12:29:48.179Z,18.09
2023-01-02T12:35:28.715Z,18.01
2023-01-02T12:40:57.766Z,18.02
2023-01-02T12:46:29.308Z,17.96
2023-01-02T12:51:44.868Z,17.88
2023-01-02T12:57:22.623Z,17.85
2023-01-02T13:03:00.476Z,17.77
2023-01-02T13:08:18.591Z,17.69
2023-01-02T13:13:41.773Z,17.65
2023-01-02T13:19:27.507Z,17.64
2023-01-02T13:24:35.490Z,17.57
2023-01-02T13:30:07.395Z,17.59
2023-01-02T13:40:44.823Z,17.58
2023-01-02T13:46:23.629Z,17.59
2023-01-02T13:57:43.838Z,17.65
2023-01-02T14:03:20.257Z,17.59
2023-01-02T14:08:30.708Z,17.54
2023-01-02T14:13:40.140Z,17.51
2023-01-02T14:19:05.990Z,17.48
2023-01-02T14:24:17.652Z,17.41
2023-01-02T14:29:25.052Z,17.34
2023-01-02T14:34:42.020Z,17.29
2023-01-02T14:39:56.576Z,17.28
2023-01-02T14:45:14.589Z,17.24
2023-01-02T14:50:24.421Z,17.17
2023-01-02T14:55:41.215Z,17.09
2023-01-02T15:00:51.976Z,17.02
2023-01-02T15:06:06.025Z,16.97
2023-01-02T15:11:38.295Z,16.95
2023-01-02T15:16:52.057Z,16.90
2023-01-02T15:22:00.179Z,16.80
2023-01-02T15:27:17.928Z,16.76
2023-01-02T15:32:29.736Z,16.69
2023-01-02T15:37:46.468Z,16.66
2023-01-02T15:43:16.502Z,16.60
2023-01-02T15:48:23.309Z,16.54
2023-01-02T15:53:40.029Z,16.49
2023-01-02T15:58:53.176Z,16.36
2023-01-02T16:04:05.950Z,16.26
2023-01-02T16:09:23.345Z,16.26
2023-01-02T16:14:35.583Z,16.22
2023-01-02T16:19:45.654Z,16.16
2023-01-02T16:25:03.002Z,16.16
2023-01-02T16:30:28.400Z,16.09
2023-01-02T16:35:35.702Z,16.03
2023-01-02T16:41:00.646Z,16.01
2023-01-02T16:46:16.019Z,15.91
2023-01-02T16:51:23.931Z,15.87
2023-01-02T16:56:36.074Z,15.81
2023-01-02T17:01:49.442Z,15.81
2023-01-02T17:07:01.033Z,15.76
2023-01-02T17:12:20.339Z,15.72
2023-01-02T17:17:26.640Z,15.64
2023-01-02T17:22:37.727Z,15.55
2023-01-02T17:27:58.616Z,15.45
2023-01-02T17:33:06.509Z,15.38
2023-01-02T17:38:36.980Z,15.24
2023-01-02T17:44:02.053Z,14.98
2023-01-02T17:49:12.240Z,14.74
2023-01-02T17:54:20.310Z,14.55
2023-01-02T17:59:28.723Z,14.38
2023-01-02T18:04:54.936Z,14.14
2023-01-02T18:10:08.109Z,14.10
2023-01-02T18:15:22.766Z,14.01
2023-01-02T18:20:27.153Z,13.90
2023-01-02T18:25:41.545Z,13.82
2023-01-02T18:30:50.455Z,13.76
2023-01-02T18:36:03.663Z,13.70
2023-01-02T18:41:27.402Z,13.62
2023-01-02T18:47:03.571Z,13.54
2023-01-02T18:52:09.064Z,13.52
2023-01-02T18:57:16.788Z,13.46
2023-01-02T19:02:43.135Z,13.38
2023-01-02T19:08:20.541Z,13.28
2023-01-02T19:13:28.703Z,13.22
2023-01-02T19:18:40.766Z,13.15
2023-01-02T19:23:52.809Z,13.05
2023-01-02T19:28:59.442Z,12.99
2023-01-02T19:34:04.071Z,12.98
2023-01-02T19:39:24.991Z,12.90
2023-01-02T19:44:28.298Z,12.83
2023-01-02T19:49:33.299Z,12.76
2023-01-02T19:54:37.587Z,12.69
2023-01-02T19:59:45.627Z,12.65
2023-01-02T20:04:53.447Z,12.64
2023-01-02T20:09:57.097Z,12.60
2023-01-02T20:15:01.590Z,12.61
2023-01-02T20:20:08.692Z,12.59
2023-01-02T20:25:12.640Z,12.53
2023-01-02T20:30:18.824Z,12.51
2023-01-02T20:35:26.864Z,12.47
2023-01-02T20:40:30.592Z,12.45
2023-01-02T20:45:34.153Z,12.37
2023-01-02T20:50:39.460Z,12.41
2023-01-02T20:55:43.279Z,12.41
2023-01-02T21:00:46.879Z,12.43
2023-01-02T21:05:53.128Z,12.41
2023-01-02T21:10:57.197Z,12.43
2023-01-02T21:16:01.237Z,12.41
2023-01-02T21:21:10.557Z,12.29
2023-01-02T21:26:16.090Z,12.24
2023-01-02T21:31:20.824Z,12.14
2023-01-02T21:36:25.504Z,12.09
2023-01-02T21:41:47.904Z,12.07
2023-01-02T21:46:51.325Z,12.04
2023-01-02T21:51:55.785Z,11.98
2023-01-02T21:56:59.281Z,11.96
2023-01-02T22:02:04.115Z,11.87
2023-01-02T22:12:32.469Z,11.77
2023-01-02T22:17:35.914Z,11.72
2023-01-02T22:22:40.332Z,11.70
2023-01-02T22:27:43.753Z,11.63
2023-01-02T22:32:47.196Z,11.58
2023-01-02T22:37:51.938Z,11.52
2023-01-02T22:43:04.472Z,11.45
2023-01-02T22:48:16.432Z,11.40
2023-01-02T22:53:48.834Z,11.38
2023-01-02T22:58:52.462Z,11.20
2023-01-02T23:03:55.879Z,11.07
2023-01-02T23:09:00.563Z,10.96
2023-01-02T23:14:04.009Z,10.91
2023-01-02T23:19:24.683Z,10.84
2023-01-02T23:24:32.089Z,10.74
2023-01-02T23:29:35.498Z,10.71
2023-01-02T23:34:39.218Z,10.74
2023-01-02T23:39:43.892Z,10.71
2023-01-02T23:44:47.089Z,10.67
2023-01-02T23:49:50.389Z,10.69
2023-01-02T23:54:55.057Z,10.70
2023-01-02T23:59:58.367Z,10.79
